UAL863 KSFO-YSSY
Flight info
| Callsign | UAL863 |
|---|---|
| Flight time | N/A |
| Altitude | 34000 |
| Route | GNNRR3 CINNY DCT 33N130W 29N135W 24N140W 20N144W 15N148W 10N152W/N0505F360 DCT WOSLU B581 WACOS DCT 03S170W DCT CUFFY/N0498F380 DCT 09S180E 18S170E 23S163E/N0491F400 25S160E DCT CBULA DCT BANDA J70 IGDAM H652 BOREE |
| Aircraft | B789/H-SDE1E2E3FGHIJ2J3J4J5M1RWXY/LB1D1 |
Departure
| Time | 2026-05-06 22:53 |
|---|---|
| Airport | San Francisco International Airport (KSFO) |
Arrival
| Time | N/A |
|---|---|
| Airport | Sydney Kingsford Smith International Airport (YSSY) |
| Time | Latitude | Longitude | Altitude | Speed | Heading |
|---|---|---|---|---|---|
| 2026-05-06 22:33 | 37.61889 | -122.39254 | 22 ft | 0 kts | 206° |
| 2026-05-06 22:40 | 37.61890 | -122.39254 | 22 ft | 1 kts | 206° |
| 2026-05-06 22:40 | 37.61908 | -122.39242 | 26 ft | 3 kts | 213° |
| 2026-05-06 22:40 | 37.61925 | -122.39227 | 25 ft | 3 kts | 222° |
| 2026-05-06 22:40 | 37.61940 | -122.39208 | 25 ft | 3 kts | 239° |
| 2026-05-06 22:41 | 37.61945 | -122.39169 | 23 ft | 0 kts | 298° |
| 2026-05-06 22:44 | 37.61947 | -122.39174 | 22 ft | 2 kts | 298° |
| 2026-05-06 22:44 | 37.61962 | -122.39208 | 26 ft | 7 kts | 304° |
| 2026-05-06 22:45 | 37.62009 | -122.39240 | 25 ft | 8 kts | 0° |
| 2026-05-06 22:45 | 37.62075 | -122.39208 | 20 ft | 13 kts | 28° |
| 2026-05-06 22:45 | 37.62163 | -122.39150 | 20 ft | 15 kts | 27° |
| 2026-05-06 22:45 | 37.62234 | -122.39066 | 20 ft | 13 kts | 66° |
| 2026-05-06 22:46 | 37.62262 | -122.38956 | 19 ft | 13 kts | 81° |
| 2026-05-06 22:46 | 37.62239 | -122.38851 | 18 ft | 13 kts | 116° |
| 2026-05-06 22:46 | 37.62199 | -122.38756 | 18 ft | 11 kts | 118° |
| 2026-05-06 22:46 | 37.62166 | -122.38679 | 20 ft | 8 kts | 118° |
| 2026-05-06 22:47 | 37.62141 | -122.38620 | 26 ft | 9 kts | 118° |
| 2026-05-06 22:47 | 37.62108 | -122.38541 | 26 ft | 11 kts | 118° |
| 2026-05-06 22:47 | 37.62066 | -122.38442 | 29 ft | 14 kts | 118° |
| 2026-05-06 22:47 | 37.62018 | -122.38328 | 27 ft | 15 kts | 118° |
| 2026-05-06 22:48 | 37.61968 | -122.38206 | 27 ft | 17 kts | 118° |
| 2026-05-06 22:48 | 37.61908 | -122.38063 | 31 ft | 20 kts | 117° |
| 2026-05-06 22:48 | 37.61847 | -122.37916 | 27 ft | 16 kts | 113° |
| 2026-05-06 22:48 | 37.61802 | -122.37777 | 23 ft | 17 kts | 112° |
| 2026-05-06 22:49 | 37.61758 | -122.37638 | 29 ft | 16 kts | 111° |
| 2026-05-06 22:49 | 37.61716 | -122.37507 | 27 ft | 16 kts | 115° |
| 2026-05-06 22:49 | 37.61669 | -122.37392 | 31 ft | 14 kts | 118° |
| 2026-05-06 22:49 | 37.61628 | -122.37296 | 27 ft | 12 kts | 117° |
| 2026-05-06 22:50 | 37.61591 | -122.37207 | 27 ft | 12 kts | 117° |
| 2026-05-06 22:50 | 37.61545 | -122.37095 | 26 ft | 18 kts | 118° |
| 2026-05-06 22:50 | 37.61464 | -122.36928 | 30 ft | 25 kts | 129° |
| 2026-05-06 22:50 | 37.61355 | -122.36746 | 24 ft | 26 kts | 122° |
| 2026-05-06 22:51 | 37.61265 | -122.36540 | 21 ft | 27 kts | 118° |
| 2026-05-06 22:51 | 37.61179 | -122.36335 | 25 ft | 25 kts | 118° |
| 2026-05-06 22:51 | 37.61097 | -122.36142 | 26 ft | 24 kts | 118° |
| 2026-05-06 22:51 | 37.61057 | -122.35978 | 24 ft | 18 kts | 75° |
| 2026-05-06 22:52 | 37.61141 | -122.35888 | 26 ft | 16 kts | 6° |
| 2026-05-06 22:52 | 37.61221 | -122.35961 | 26 ft | 16 kts | 300° |
| 2026-05-06 22:52 | 37.61336 | -122.36228 | 21 ft | 61 kts | 297° |
| 2026-05-06 22:52 | 37.61626 | -122.36907 | 26 ft | 113 kts | 297° |
| 2026-05-06 22:53 | 37.62071 | -122.37967 | 28 ft | 158 kts | 297° |
| 2026-05-06 22:53 | 37.62621 | -122.39260 | 381 ft | 168 kts | 300° |
| 2026-05-06 22:53 | 37.63175 | -122.40646 | 849 ft | 187 kts | 296° |
| 2026-05-06 22:53 | 37.63794 | -122.42184 | 1499 ft | 206 kts | 296° |
| 2026-05-06 22:54 | 37.64426 | -122.43850 | 2167 ft | 217 kts | 295° |
| 2026-05-06 22:54 | 37.65075 | -122.45690 | 2512 ft | 238 kts | 291° |
| 2026-05-06 22:54 | 37.65436 | -122.47745 | 3076 ft | 248 kts | 271° |
| 2026-05-06 22:54 | 37.65432 | -122.49968 | 3675 ft | 261 kts | 272° |
| 2026-05-06 22:55 | 37.65397 | -122.52307 | 4316 ft | 272 kts | 263° |
| 2026-05-06 22:55 | 37.64917 | -122.54649 | 5051 ft | 270 kts | 240° |
| 2026-05-06 22:55 | 37.63782 | -122.56510 | 6030 ft | 274 kts | 230° |
| 2026-05-06 22:55 | 37.62443 | -122.58343 | 6530 ft | 286 kts | 227° |
| 2026-05-06 22:56 | 37.61111 | -122.60192 | 7351 ft | 286 kts | 231° |
| 2026-05-06 22:56 | 37.59853 | -122.62174 | 8022 ft | 292 kts | 233° |
| 2026-05-06 22:56 | 37.58601 | -122.64202 | 8774 ft | 293 kts | 232° |
| 2026-05-06 22:56 | 37.57310 | -122.66217 | 9403 ft | 303 kts | 231° |
| 2026-05-06 22:57 | 37.55918 | -122.68362 | 9488 ft | 330 kts | 231° |
| 2026-05-06 22:57 | 37.54438 | -122.70658 | 9617 ft | 354 kts | 232° |
| 2026-05-06 22:57 | 37.52863 | -122.73110 | 10196 ft | 362 kts | 231° |
| 2026-05-06 22:57 | 37.51276 | -122.75577 | 10935 ft | 363 kts | 231° |
| 2026-05-06 22:58 | 37.49666 | -122.78072 | 11488 ft | 371 kts | 230° |
| 2026-05-06 22:58 | 37.48032 | -122.80603 | 12217 ft | 372 kts | 230° |
| 2026-05-06 22:58 | 37.46389 | -122.83149 | 12802 ft | 379 kts | 230° |
| 2026-05-06 22:58 | 37.44723 | -122.85729 | 13529 ft | 380 kts | 230° |
| 2026-05-06 22:59 | 37.43043 | -122.88328 | 14123 ft | 386 kts | 229° |
| 2026-05-06 22:59 | 37.41340 | -122.90959 | 14752 ft | 388 kts | 230° |
| 2026-05-06 22:59 | 37.39623 | -122.93610 | 15275 ft | 394 kts | 230° |
| 2026-05-06 22:59 | 37.37889 | -122.96288 | 15968 ft | 395 kts | 230° |
| 2026-05-06 23:00 | 37.36136 | -122.98990 | 16420 ft | 401 kts | 230° |
| 2026-05-06 23:00 | 37.34368 | -123.01710 | 17073 ft | 403 kts | 231° |
| 2026-05-06 23:00 | 37.33190 | -123.03525 | 17331 ft | 408 kts | 231° |
| 2026-05-06 23:00 | 37.31397 | -123.06286 | 17994 ft | 408 kts | 231° |
| 2026-05-06 23:01 | 37.29585 | -123.09070 | 18448 ft | 414 kts | 231° |
| 2026-05-06 23:01 | 37.27767 | -123.11860 | 19024 ft | 414 kts | 231° |
| 2026-05-06 23:01 | 37.25927 | -123.14685 | 19467 ft | 418 kts | 231° |
| 2026-05-06 23:01 | 37.24086 | -123.17507 | 19989 ft | 419 kts | 232° |
| 2026-05-06 23:02 | 37.22258 | -123.20309 | 20471 ft | 420 kts | 231° |
| 2026-05-06 23:02 | 37.20400 | -123.23152 | 20919 ft | 424 kts | 232° |
| 2026-05-06 23:02 | 37.18529 | -123.26013 | 21431 ft | 424 kts | 232° |
| 2026-05-06 23:02 | 37.16649 | -123.28886 | 21850 ft | 427 kts | 232° |
| 2026-05-06 23:03 | 37.14762 | -123.31766 | 22323 ft | 429 kts | 232° |
| 2026-05-06 23:03 | 37.12857 | -123.34672 | 22712 ft | 432 kts | 232° |
| 2026-05-06 23:03 | 37.10946 | -123.37584 | 23150 ft | 434 kts | 232° |
| 2026-05-06 23:03 | 37.09024 | -123.40510 | 23590 ft | 436 kts | 232° |
| 2026-05-06 23:04 | 37.07092 | -123.43449 | 23943 ft | 438 kts | 232° |
| 2026-05-06 23:04 | 37.05152 | -123.46399 | 24267 ft | 440 kts | 232° |
| 2026-05-06 23:04 | 37.03197 | -123.49367 | 24582 ft | 443 kts | 232° |
| 2026-05-06 23:04 | 37.01230 | -123.52351 | 24892 ft | 445 kts | 232° |
| 2026-05-06 23:05 | 36.99256 | -123.55343 | 25214 ft | 447 kts | 232° |
| 2026-05-06 23:05 | 36.97269 | -123.58352 | 25501 ft | 450 kts | 232° |
| 2026-05-06 23:05 | 36.95275 | -123.61369 | 25810 ft | 452 kts | 232° |
| 2026-05-06 23:05 | 36.93267 | -123.64405 | 26103 ft | 454 kts | 232° |
| 2026-05-06 23:06 | 36.91250 | -123.67452 | 26384 ft | 456 kts | 232° |
| 2026-05-06 23:06 | 36.89226 | -123.70505 | 26676 ft | 458 kts | 232° |
| 2026-05-06 23:06 | 36.87185 | -123.73583 | 26944 ft | 460 kts | 232° |
| 2026-05-06 23:06 | 36.85162 | -123.76629 | 27210 ft | 462 kts | 232° |
| 2026-05-06 23:07 | 36.83101 | -123.79731 | 27513 ft | 464 kts | 232° |
| 2026-05-06 23:07 | 36.81027 | -123.82849 | 27760 ft | 466 kts | 232° |
| 2026-05-06 23:07 | 36.78953 | -123.85964 | 28020 ft | 468 kts | 231° |
| 2026-05-06 23:07 | 36.76867 | -123.89094 | 28291 ft | 470 kts | 231° |
| 2026-05-06 23:08 | 36.74769 | -123.92240 | 28541 ft | 472 kts | 231° |
| 2026-05-06 23:08 | 36.72663 | -123.95393 | 28784 ft | 474 kts | 231° |
| 2026-05-06 23:08 | 36.70548 | -123.98557 | 29049 ft | 475 kts | 231° |
| 2026-05-06 23:08 | 36.68428 | -124.01727 | 29261 ft | 478 kts | 231° |
| 2026-05-06 23:09 | 36.66297 | -124.04910 | 29502 ft | 479 kts | 231° |
| 2026-05-06 23:09 | 36.64157 | -124.08102 | 29747 ft | 481 kts | 231° |
| 2026-05-06 23:09 | 36.62005 | -124.11310 | 29954 ft | 483 kts | 231° |
| 2026-05-06 23:09 | 36.59847 | -124.14524 | 30179 ft | 485 kts | 231° |
| 2026-05-06 23:10 | 36.57680 | -124.17748 | 30391 ft | 486 kts | 231° |
| 2026-05-06 23:10 | 36.55506 | -124.20979 | 30556 ft | 488 kts | 231° |
| 2026-05-06 23:10 | 36.53355 | -124.24173 | 30732 ft | 489 kts | 231° |
| 2026-05-06 23:10 | 36.51171 | -124.27413 | 30914 ft | 490 kts | 231° |
| 2026-05-06 23:11 | 36.48976 | -124.30667 | 31094 ft | 491 kts | 231° |
| 2026-05-06 23:11 | 36.46777 | -124.33924 | 31260 ft | 493 kts | 231° |
| 2026-05-06 23:11 | 36.44569 | -124.37189 | 31439 ft | 494 kts | 231° |
| 2026-05-06 23:11 | 36.42355 | -124.40460 | 31591 ft | 495 kts | 231° |
| 2026-05-06 23:12 | 36.40135 | -124.43738 | 31752 ft | 497 kts | 231° |
| 2026-05-06 23:12 | 36.37907 | -124.47023 | 31923 ft | 497 kts | 231° |
| 2026-05-06 23:12 | 36.35678 | -124.50308 | 32097 ft | 498 kts | 230° |
| 2026-05-06 23:12 | 36.33442 | -124.53600 | 32214 ft | 500 kts | 231° |
| 2026-05-06 23:13 | 36.31199 | -124.56898 | 32376 ft | 501 kts | 230° |
| 2026-05-06 23:13 | 36.28950 | -124.60202 | 32540 ft | 502 kts | 230° |
| 2026-05-06 23:13 | 36.26695 | -124.63512 | 32659 ft | 503 kts | 230° |
| 2026-05-06 23:13 | 36.24432 | -124.66830 | 32790 ft | 504 kts | 230° |
| 2026-05-06 23:14 | 36.22165 | -124.70151 | 32940 ft | 505 kts | 230° |
| 2026-05-06 23:14 | 36.19922 | -124.73432 | 33072 ft | 506 kts | 230° |
| 2026-05-06 23:14 | 36.17673 | -124.76850 | 33229 ft | 505 kts | 236° |
| 2026-05-06 23:14 | 36.15685 | -124.80372 | 33355 ft | 506 kts | 236° |
| 2026-05-06 23:15 | 36.13686 | -124.83953 | 33557 ft | 505 kts | 236° |
| 2026-05-06 23:15 | 36.11675 | -124.87529 | 33728 ft | 505 kts | 235° |
| 2026-05-06 23:15 | 36.09660 | -124.91074 | 33945 ft | 504 kts | 235° |
| 2026-05-06 23:15 | 36.07642 | -124.94629 | 34052 ft | 505 kts | 235° |
| 2026-05-06 23:16 | 36.05625 | -124.98199 | 34043 ft | 506 kts | 236° |
| 2026-05-06 23:16 | 36.01606 | -125.05287 | 34042 ft | 502 kts | 235° |
| 2026-05-06 23:17 | 35.97596 | -125.12337 | 34045 ft | 502 kts | 235° |
| 2026-05-06 23:17 | 35.93578 | -125.19394 | 34044 ft | 502 kts | 235° |
| 2026-05-06 23:18 | 35.89557 | -125.26436 | 34043 ft | 502 kts | 235° |
| 2026-05-06 23:18 | 35.85530 | -125.33479 | 34127 ft | 501 kts | 235° |
| 2026-05-06 23:19 | 35.81510 | -125.40491 | 34226 ft | 502 kts | 235° |
| 2026-05-06 23:19 | 35.77475 | -125.47517 | 34221 ft | 502 kts | 235° |
| 2026-05-06 23:20 | 35.73471 | -125.54475 | 34227 ft | 500 kts | 235° |
| 2026-05-06 23:20 | 35.69449 | -125.61450 | 34227 ft | 499 kts | 235° |
| 2026-05-06 23:21 | 35.65428 | -125.68411 | 34230 ft | 499 kts | 235° |
| 2026-05-06 23:21 | 35.61398 | -125.75370 | 34228 ft | 499 kts | 235° |
| 2026-05-06 23:22 | 35.57372 | -125.82312 | 34230 ft | 499 kts | 234° |
| 2026-05-06 23:22 | 35.53343 | -125.89244 | 34235 ft | 499 kts | 235° |
| 2026-05-06 23:23 | 35.49301 | -125.96183 | 34236 ft | 499 kts | 234° |
| 2026-05-06 23:23 | 35.45253 | -126.03120 | 34240 ft | 499 kts | 234° |
| 2026-05-06 23:24 | 35.41236 | -126.09990 | 34244 ft | 499 kts | 235° |
| 2026-05-06 23:24 | 35.37178 | -126.16916 | 34246 ft | 501 kts | 234° |
| 2026-05-06 23:25 | 35.33111 | -126.23845 | 34249 ft | 500 kts | 234° |
| 2026-05-06 23:25 | 35.29050 | -126.30749 | 34241 ft | 499 kts | 234° |
| 2026-05-06 23:26 | 35.24988 | -126.37642 | 34240 ft | 499 kts | 234° |
| 2026-05-06 23:26 | 35.20922 | -126.44526 | 34241 ft | 500 kts | 234° |
| 2026-05-06 23:27 | 35.16845 | -126.51418 | 34246 ft | 499 kts | 234° |
| 2026-05-06 23:27 | 35.12799 | -126.58242 | 34246 ft | 499 kts | 234° |
| 2026-05-06 23:28 | 35.08728 | -126.65097 | 34249 ft | 498 kts | 234° |
| 2026-05-06 23:28 | 35.04656 | -126.71939 | 34248 ft | 497 kts | 234° |
| 2026-05-06 23:29 | 35.00584 | -126.78766 | 34248 ft | 498 kts | 234° |
| 2026-05-06 23:29 | 34.96511 | -126.85586 | 34249 ft | 497 kts | 234° |
| 2026-05-06 23:30 | 34.92432 | -126.92398 | 34244 ft | 498 kts | 235° |
| 2026-05-06 23:30 | 34.88338 | -126.99224 | 34259 ft | 499 kts | 234° |
| 2026-05-06 23:31 | 34.84249 | -127.06030 | 34261 ft | 497 kts | 235° |
| 2026-05-06 23:31 | 34.80159 | -127.12823 | 34256 ft | 497 kts | 235° |
| 2026-05-06 23:32 | 34.76066 | -127.19610 | 34260 ft | 497 kts | 234° |
| 2026-05-06 23:32 | 34.71969 | -127.26386 | 34269 ft | 497 kts | 235° |
| 2026-05-06 23:33 | 34.67885 | -127.33133 | 34264 ft | 495 kts | 234° |
| 2026-05-06 23:33 | 34.63826 | -127.39823 | 34259 ft | 496 kts | 235° |
| 2026-05-06 23:34 | 34.59728 | -127.46565 | 34260 ft | 496 kts | 234° |
| 2026-05-06 23:34 | 34.55634 | -127.53287 | 34263 ft | 495 kts | 235° |
| 2026-05-06 23:35 | 34.51541 | -127.59997 | 34261 ft | 495 kts | 234° |
| 2026-05-06 23:35 | 34.47446 | -127.66696 | 34267 ft | 495 kts | 234° |
| 2026-05-06 23:36 | 34.43344 | -127.73394 | 34260 ft | 494 kts | 235° |
| 2026-05-06 23:36 | 34.39253 | -127.80062 | 34258 ft | 494 kts | 234° |
| 2026-05-06 23:37 | 34.35142 | -127.86749 | 34264 ft | 495 kts | 234° |
| 2026-05-06 23:37 | 34.31026 | -127.93433 | 34267 ft | 495 kts | 234° |
| 2026-05-06 23:38 | 34.26914 | -128.00098 | 34261 ft | 492 kts | 234° |
| 2026-05-06 23:38 | 34.22854 | -128.06665 | 34257 ft | 491 kts | 234° |
| 2026-05-06 23:39 | 34.18763 | -128.13273 | 34258 ft | 491 kts | 234° |
| 2026-05-06 23:39 | 34.14663 | -128.19881 | 34257 ft | 492 kts | 234° |
| 2026-05-06 23:40 | 34.10564 | -128.26477 | 34261 ft | 491 kts | 234° |
| 2026-05-06 23:40 | 34.06464 | -128.33061 | 34262 ft | 491 kts | 234° |
| 2026-05-06 23:41 | 34.02357 | -128.39646 | 34271 ft | 491 kts | 234° |
| 2026-05-06 23:41 | 33.98273 | -128.46179 | 34274 ft | 491 kts | 234° |
| 2026-05-06 23:42 | 33.94162 | -128.52747 | 34277 ft | 491 kts | 234° |
| 2026-05-06 23:42 | 33.90051 | -128.59301 | 34281 ft | 491 kts | 234° |
| 2026-05-06 23:43 | 33.85932 | -128.65857 | 34273 ft | 491 kts | 234° |
| 2026-05-06 23:43 | 33.81819 | -128.72391 | 34274 ft | 490 kts | 234° |
| 2026-05-06 23:44 | 33.77705 | -128.78914 | 34275 ft | 489 kts | 234° |
| 2026-05-06 23:44 | 33.73588 | -128.85432 | 34278 ft | 489 kts | 234° |
| 2026-05-06 23:45 | 33.69468 | -128.91942 | 34272 ft | 489 kts | 234° |
| 2026-05-06 23:45 | 33.65353 | -128.98432 | 34274 ft | 488 kts | 234° |
| 2026-05-06 23:46 | 33.61262 | -129.04872 | 34275 ft | 488 kts | 233° |
| 2026-05-06 23:46 | 33.57137 | -129.11356 | 34276 ft | 489 kts | 233° |
| 2026-05-06 23:47 | 33.53014 | -129.17824 | 34276 ft | 488 kts | 234° |
| 2026-05-06 23:47 | 33.48891 | -129.24282 | 34277 ft | 487 kts | 233° |
| 2026-05-06 23:48 | 33.44759 | -129.30742 | 34274 ft | 487 kts | 233° |
| 2026-05-06 23:48 | 33.40625 | -129.37194 | 34274 ft | 488 kts | 233° |
| 2026-05-06 23:49 | 33.36496 | -129.43626 | 34271 ft | 487 kts | 233° |
| 2026-05-06 23:49 | 33.32390 | -129.50012 | 34275 ft | 487 kts | 233° |
| 2026-05-06 23:50 | 33.28251 | -129.56437 | 34278 ft | 488 kts | 233° |
| 2026-05-06 23:50 | 33.22045 | -129.66050 | 34278 ft | 487 kts | 233° |
| 2026-05-06 23:51 | 33.18578 | -129.71411 | 34277 ft | 487 kts | 233° |
| 2026-05-06 23:51 | 33.14458 | -129.77769 | 34278 ft | 487 kts | 233° |
| 2026-05-06 23:52 | 33.10315 | -129.84153 | 34279 ft | 486 kts | 233° |
| 2026-05-06 23:52 | 33.06173 | -129.90524 | 34280 ft | 485 kts | 233° |
| 2026-05-06 23:53 | 33.02033 | -129.96880 | 34279 ft | 484 kts | 233° |
| 2026-05-06 23:53 | 32.97719 | -130.03035 | 34282 ft | 485 kts | 230° |
| 2026-05-06 23:54 | 32.93227 | -130.09054 | 34285 ft | 487 kts | 230° |
| 2026-05-06 23:54 | 32.88696 | -130.15087 | 34295 ft | 489 kts | 230° |
| 2026-05-06 23:55 | 32.84190 | -130.21087 | 34294 ft | 489 kts | 230° |
| 2026-05-06 23:55 | 32.79663 | -130.27103 | 34284 ft | 488 kts | 230° |
| 2026-05-06 23:56 | 32.75140 | -130.33104 | 34280 ft | 487 kts | 230° |
| 2026-05-06 23:56 | 32.70611 | -130.39103 | 34278 ft | 488 kts | 230° |
| 2026-05-06 23:57 | 32.66076 | -130.45100 | 34277 ft | 488 kts | 230° |
| 2026-05-06 23:57 | 32.61528 | -130.51103 | 34283 ft | 491 kts | 230° |
| 2026-05-06 23:58 | 32.56948 | -130.57140 | 34290 ft | 493 kts | 230° |
| 2026-05-06 23:58 | 32.52388 | -130.63140 | 34294 ft | 493 kts | 230° |
| 2026-05-06 23:59 | 32.47789 | -130.69182 | 34295 ft | 494 kts | 230° |
| 2026-05-06 23:59 | 32.43183 | -130.75221 | 34294 ft | 494 kts | 230° |
| 2026-05-07 00:00 | 32.38584 | -130.81244 | 34290 ft | 492 kts | 230° |
| 2026-05-07 00:00 | 32.33993 | -130.87245 | 34287 ft | 492 kts | 230° |
| 2026-05-07 00:01 | 32.29399 | -130.93240 | 34283 ft | 493 kts | 231° |
| 2026-05-07 00:01 | 32.24772 | -130.99271 | 34288 ft | 497 kts | 230° |
| 2026-05-07 00:02 | 32.20118 | -131.05322 | 34295 ft | 497 kts | 230° |
| 2026-05-07 00:02 | 32.15465 | -131.11366 | 34294 ft | 497 kts | 230° |
| 2026-05-07 00:03 | 32.10842 | -131.17359 | 34291 ft | 497 kts | 231° |
| 2026-05-07 00:03 | 32.06178 | -131.23398 | 34296 ft | 499 kts | 231° |
| 2026-05-07 00:04 | 32.01504 | -131.29437 | 34292 ft | 498 kts | 231° |
| 2026-05-07 00:04 | 31.96837 | -131.35459 | 34277 ft | 497 kts | 231° |
| 2026-05-07 00:05 | 31.92178 | -131.41460 | 34273 ft | 496 kts | 231° |
| 2026-05-07 00:05 | 31.87519 | -131.47452 | 34278 ft | 496 kts | 231° |
| 2026-05-07 00:06 | 31.82851 | -131.53445 | 34281 ft | 497 kts | 231° |
| 2026-05-07 00:06 | 31.78174 | -131.59441 | 34282 ft | 497 kts | 231° |
| 2026-05-07 00:07 | 31.73492 | -131.65433 | 34278 ft | 497 kts | 231° |
| 2026-05-07 00:07 | 31.68814 | -131.71410 | 34278 ft | 497 kts | 231° |
| 2026-05-07 00:08 | 31.64134 | -131.77381 | 34282 ft | 497 kts | 231° |
| 2026-05-07 00:08 | 31.59490 | -131.83295 | 34279 ft | 496 kts | 231° |
| 2026-05-07 00:09 | 31.54823 | -131.89230 | 34270 ft | 495 kts | 231° |
| 2026-05-07 00:09 | 31.50156 | -131.95156 | 34270 ft | 495 kts | 231° |
| 2026-05-07 00:10 | 31.45476 | -132.01089 | 34280 ft | 496 kts | 231° |
| 2026-05-07 00:10 | 31.40790 | -132.07019 | 34280 ft | 495 kts | 231° |
| 2026-05-07 00:11 | 31.36112 | -132.12931 | 34273 ft | 495 kts | 231° |
| 2026-05-07 00:11 | 31.31417 | -132.18854 | 34278 ft | 497 kts | 230° |
| 2026-05-07 00:12 | 31.26748 | -132.24734 | 34271 ft | 495 kts | 231° |
| 2026-05-07 00:12 | 31.22064 | -132.30627 | 34268 ft | 495 kts | 230° |
| 2026-05-07 00:13 | 31.17370 | -132.36521 | 34270 ft | 496 kts | 230° |
| 2026-05-07 00:13 | 31.12667 | -132.42418 | 34276 ft | 497 kts | 230° |
| 2026-05-07 00:14 | 31.07955 | -132.48316 | 34278 ft | 496 kts | 230° |
| 2026-05-07 00:14 | 31.03249 | -132.54197 | 34275 ft | 495 kts | 230° |
| 2026-05-07 00:15 | 30.98545 | -132.60067 | 34264 ft | 495 kts | 230° |
| 2026-05-07 00:15 | 30.93840 | -132.65930 | 34279 ft | 494 kts | 230° |
| 2026-05-07 00:16 | 30.89145 | -132.71771 | 34265 ft | 493 kts | 230° |
| 2026-05-07 00:16 | 30.84474 | -132.77573 | 34267 ft | 495 kts | 230° |
| 2026-05-07 00:17 | 30.79760 | -132.83420 | 34277 ft | 496 kts | 230° |
| 2026-05-07 00:17 | 30.75028 | -132.89281 | 34282 ft | 497 kts | 230° |
| 2026-05-07 00:18 | 30.70291 | -132.95137 | 34272 ft | 496 kts | 230° |
| 2026-05-07 00:18 | 30.65561 | -133.00976 | 34271 ft | 495 kts | 230° |
| 2026-05-07 00:19 | 30.60846 | -133.06789 | 34266 ft | 493 kts | 230° |
| 2026-05-07 00:19 | 30.56605 | -133.12009 | 34258 ft | 494 kts | 230° |
| 2026-05-07 00:20 | 30.52214 | -133.17405 | 34264 ft | 495 kts | 230° |
| 2026-05-07 00:20 | 30.47484 | -133.23212 | 34254 ft | 496 kts | 230° |
| 2026-05-07 00:21 | 30.42756 | -133.29004 | 34251 ft | 494 kts | 230° |
| 2026-05-07 00:21 | 30.38036 | -133.34781 | 34255 ft | 493 kts | 230° |
| 2026-05-07 00:22 | 30.33318 | -133.40546 | 34257 ft | 493 kts | 230° |
| 2026-05-07 00:22 | 30.28700 | -133.46180 | 34253 ft | 492 kts | 229° |
| 2026-05-07 00:23 | 30.23988 | -133.51920 | 34251 ft | 492 kts | 229° |
| 2026-05-07 00:23 | 30.19270 | -133.57660 | 34256 ft | 492 kts | 229° |
| 2026-05-07 00:24 | 30.14542 | -133.63403 | 34247 ft | 492 kts | 229° |
| 2026-05-07 00:24 | 30.09826 | -133.69121 | 34253 ft | 490 kts | 229° |
| 2026-05-07 00:25 | 30.05118 | -133.74823 | 34257 ft | 491 kts | 229° |
| 2026-05-07 00:25 | 30.00438 | -133.80482 | 34255 ft | 490 kts | 229° |
| 2026-05-07 00:26 | 29.95728 | -133.86169 | 34252 ft | 491 kts | 229° |
| 2026-05-07 00:26 | 29.91143 | -133.91698 | 34252 ft | 491 kts | 229° |
| 2026-05-07 00:27 | 29.86560 | -133.97216 | 34254 ft | 491 kts | 229° |
| 2026-05-07 00:27 | 29.81839 | -134.02892 | 34251 ft | 490 kts | 229° |
| 2026-05-07 00:28 | 29.77123 | -134.08553 | 34251 ft | 489 kts | 229° |
| 2026-05-07 00:28 | 29.72409 | -134.14205 | 34249 ft | 490 kts | 229° |
| 2026-05-07 00:29 | 29.58548 | -134.30773 | 34244 ft | 490 kts | 228° |
| 2026-05-07 00:30 | 29.20748 | -134.75606 | 34239 ft | 490 kts | 228° |
| 2026-05-07 00:30 | 29.01597 | -134.98127 | 34245 ft | 490 kts | 228° |
| 2026-05-07 00:31 | 28.81823 | -135.19293 | 34245 ft | 490 kts | 225° |
| 2026-05-07 00:31 | 28.61837 | -135.40433 | 34234 ft | 490 kts | 225° |
| 2026-05-07 00:32 | 28.41759 | -135.61538 | 34237 ft | 491 kts | 225° |
| 2026-05-07 00:32 | 28.21659 | -135.82552 | 34225 ft | 490 kts | 225° |
| 2026-05-07 00:33 | 28.01547 | -136.03466 | 34238 ft | 492 kts | 225° |
| 2026-05-07 00:33 | 27.81358 | -136.24349 | 34229 ft | 492 kts | 225° |
| 2026-05-07 00:34 | 27.78066 | -136.27743 | 34229 ft | 493 kts | 225° |